createdAt,value
2018-07-29T00:00:25.157Z,79.30
2018-07-29T00:02:53.242Z,79.80
2018-07-29T00:05:21.334Z,79.60
2018-07-29T00:07:49.418Z,80.30
2018-07-29T00:10:17.533Z,80.00
2018-07-29T00:12:45.923Z,80.10
2018-07-29T00:15:14.094Z,80.10
2018-07-29T00:17:42.169Z,80.00
2018-07-29T00:20:10.978Z,80.00
2018-07-29T00:22:39.262Z,80.10
2018-07-29T00:25:08.023Z,80.10
2018-07-29T00:27:36.203Z,80.30
2018-07-29T00:30:04.959Z,80.50
2018-07-29T00:32:33.044Z,80.70
2018-07-29T00:35:01.178Z,80.90
2018-07-29T00:37:29.612Z,81.00
2018-07-29T00:39:57.697Z,81.10
2018-07-29T00:42:25.782Z,81.00
2018-07-29T00:44:53.875Z,81.30
2018-07-29T00:47:22.027Z,81.40
2018-07-29T00:49:50.375Z,82.30
2018-07-29T00:52:18.442Z,82.30
2018-07-29T00:54:46.534Z,82.10
2018-07-29T00:57:14.642Z,82.10
2018-07-29T01:02:10.918Z,82.30
2018-07-29T01:04:38.987Z,82.30
2018-07-29T01:07:07.112Z,82.10
2018-07-29T01:09:35.177Z,82.20
2018-07-29T01:12:03.289Z,82.40
2018-07-29T01:14:31.686Z,82.50
2018-07-29T01:16:59.776Z,82.50
2018-07-29T01:19:27.881Z,82.50
2018-07-29T01:21:55.955Z,82.50
2018-07-29T01:24:24.019Z,83.30
2018-07-29T01:29:20.282Z,82.60
2018-07-29T01:31:48.368Z,82.60
2018-07-29T01:34:16.536Z,82.80
2018-07-29T01:39:12.510Z,82.40
2018-07-29T01:41:40.682Z,82.30
2018-07-29T01:44:08.902Z,82.20
2018-07-29T01:46:36.981Z,82.10
2018-07-29T01:49:05.047Z,82.10
2018-07-29T01:51:33.396Z,82.00
2018-07-29T01:54:01.550Z,81.90
2018-07-29T01:56:29.610Z,81.80
2018-07-29T01:58:57.682Z,81.70
2018-07-29T02:01:25.840Z,81.80
2018-07-29T02:03:54.266Z,81.70
2018-07-29T02:06:22.352Z,81.70
2018-07-29T02:08:50.465Z,81.70
2018-07-29T02:13:46.474Z,82.40
2018-07-29T02:16:14.826Z,82.20
2018-07-29T02:18:42.902Z,82.50
2018-07-29T02:21:10.974Z,82.20
2018-07-29T02:23:39.078Z,82.10
2018-07-29T02:26:07.150Z,82.10
2018-07-29T02:28:35.387Z,82.10
2018-07-29T02:31:03.470Z,82.20
2018-07-29T02:33:32.580Z,81.90
2018-07-29T02:36:01.479Z,81.80
2018-07-29T02:38:29.553Z,81.70
2018-07-29T02:40:57.922Z,81.60
2018-07-29T02:43:25.994Z,81.60
2018-07-29T02:45:54.062Z,81.50
2018-07-29T02:48:22.138Z,81.50
2018-07-29T02:50:50.242Z,81.60
2018-07-29T02:53:18.346Z,81.60
2018-07-29T02:55:46.435Z,81.60
2018-07-29T02:58:14.553Z,81.90
2018-07-29T03:00:42.642Z,82.00
2018-07-29T03:03:10.713Z,82.90
2018-07-29T03:05:39.125Z,82.90
2018-07-29T03:08:07.519Z,82.90
2018-07-29T03:10:35.590Z,82.80
2018-07-29T03:13:03.663Z,82.90
2018-07-29T03:15:31.747Z,83.20
2018-07-29T03:17:59.995Z,83.40
2018-07-29T03:20:28.031Z,83.50
2018-07-29T03:25:24.007Z,83.40
2018-07-29T03:27:52.102Z,83.40
2018-07-29T03:30:20.214Z,83.30
2018-07-29T03:32:48.274Z,83.20
2018-07-29T03:35:16.350Z,83.00
2018-07-29T03:37:44.420Z,82.70
2018-07-29T03:40:12.483Z,82.40
2018-07-29T03:42:40.926Z,82.30
2018-07-29T03:45:09.016Z,83.00
2018-07-29T03:47:37.100Z,82.20
2018-07-29T03:50:05.202Z,82.10
2018-07-29T03:52:33.274Z,82.00
2018-07-29T03:55:01.349Z,82.00
2018-07-29T03:59:57.366Z,82.10
2018-07-29T04:02:25.449Z,82.10
2018-07-29T04:04:53.510Z,82.10
2018-07-29T04:07:21.581Z,82.10
2018-07-29T04:09:49.682Z,82.20
2018-07-29T04:12:17.758Z,82.80
2018-07-29T04:14:45.848Z,82.10
2018-07-29T04:17:13.938Z,82.00
2018-07-29T04:19:42.018Z,82.00
2018-07-29T04:22:10.107Z,82.00
2018-07-29T04:24:38.239Z,82.00
2018-07-29T04:27:06.431Z,82.00
2018-07-29T04:29:34.502Z,81.90
2018-07-29T04:32:02.601Z,81.80
2018-07-29T04:34:30.690Z,81.70
2018-07-29T04:36:58.783Z,82.30
2018-07-29T04:39:26.865Z,82.10
2018-07-29T04:41:54.948Z,82.10
2018-07-29T04:44:23.018Z,82.10
2018-07-29T04:46:51.135Z,82.00
2018-07-29T04:49:19.204Z,81.90
2018-07-29T04:51:47.330Z,81.90
2018-07-29T04:54:15.426Z,81.80
2018-07-29T04:56:43.499Z,81.60
2018-07-29T04:59:11.870Z,81.30
2018-07-29T05:01:40.095Z,81.10
2018-07-29T05:04:08.182Z,80.90
2018-07-29T05:06:36.370Z,80.80
2018-07-29T05:09:06.506Z,80.50
2018-07-29T05:11:34.587Z,80.30
2018-07-29T05:14:02.662Z,80.30
2018-07-29T05:16:30.730Z,80.20
2018-07-29T05:18:58.802Z,80.20
2018-07-29T05:21:26.874Z,80.50
2018-07-29T05:23:55.012Z,80.20
2018-07-29T05:26:23.079Z,80.10
2018-07-29T05:28:51.203Z,80.10
2018-07-29T05:31:19.329Z,80.30
2018-07-29T05:33:47.425Z,80.30
2018-07-29T05:36:15.752Z,80.40
2018-07-29T05:38:43.837Z,80.70
2018-07-29T05:43:39.881Z,80.90
2018-07-29T05:46:07.974Z,80.70
2018-07-29T05:48:36.370Z,80.70
2018-07-29T05:51:04.512Z,80.50
2018-07-29T05:53:32.603Z,80.20
2018-07-29T05:56:00.697Z,79.90
2018-07-29T05:58:28.775Z,79.50
2018-07-29T06:00:57.134Z,79.30
2018-07-29T06:03:25.210Z,79.20
2018-07-29T06:05:53.376Z,79.30
2018-07-29T06:08:21.502Z,79.30
2018-07-29T06:10:49.579Z,80.20
2018-07-29T06:13:17.677Z,80.90
2018-07-29T06:15:45.772Z,80.00
2018-07-29T06:18:13.842Z,79.90
2018-07-29T06:20:41.930Z,79.80
2018-07-29T06:23:10.000Z,79.90
2018-07-29T06:25:38.073Z,80.20
2018-07-29T06:28:06.305Z,80.60
2018-07-29T06:30:34.384Z,81.00
2018-07-29T06:33:02.444Z,81.20
2018-07-29T06:35:30.530Z,81.50
2018-07-29T06:37:58.619Z,81.50
2018-07-29T06:40:26.706Z,81.50
2018-07-29T06:42:55.182Z,81.60
2018-07-29T06:45:23.264Z,82.30
2018-07-29T06:47:51.334Z,82.10
2018-07-29T06:50:19.430Z,82.00
2018-07-29T06:52:47.530Z,81.70
2018-07-29T06:55:15.951Z,81.50
2018-07-29T06:57:44.145Z,81.50
2018-07-29T07:00:12.235Z,81.90
2018-07-29T07:02:40.333Z,81.50
2018-07-29T07:05:08.539Z,81.10
2018-07-29T07:07:36.926Z,81.30
2018-07-29T07:10:05.035Z,81.00
2018-07-29T07:12:33.214Z,80.50
2018-07-29T07:15:01.349Z,80.10
2018-07-29T07:17:29.423Z,79.80
2018-07-29T07:19:57.524Z,79.30
2018-07-29T07:22:25.604Z,78.80
2018-07-29T07:24:53.683Z,78.30
2018-07-29T07:27:21.863Z,78.00
2018-07-29T07:29:49.954Z,77.70
2018-07-29T07:32:18.191Z,76.70
2018-07-29T07:34:46.281Z,76.40
2018-07-29T07:37:14.391Z,76.00
2018-07-29T07:39:42.480Z,76.50
2018-07-29T07:42:10.617Z,75.50
2018-07-29T07:47:06.922Z,74.40
2018-07-29T07:49:35.036Z,73.80
2018-07-29T07:52:03.117Z,73.60
2018-07-29T07:54:31.202Z,72.90
2018-07-29T07:57:01.704Z,72.30
2018-07-29T07:59:29.799Z,71.60
2018-07-29T08:01:57.966Z,70.50
2018-07-29T08:04:26.043Z,70.10
2018-07-29T08:06:54.156Z,69.70
2018-07-29T08:09:22.288Z,69.10
2018-07-29T08:11:50.321Z,68.50
2018-07-29T08:14:18.428Z,67.60
2018-07-29T08:16:46.545Z,67.10
2018-07-29T08:19:14.642Z,67.00
2018-07-29T08:21:43.059Z,67.50
2018-07-29T08:24:11.142Z,67.40
2018-07-29T08:26:39.194Z,66.80
2018-07-29T08:29:07.542Z,66.90
2018-07-29T08:31:35.615Z,65.30
2018-07-29T08:34:03.850Z,65.00
2018-07-29T08:36:31.964Z,64.10
2018-07-29T08:39:00.163Z,62.00
2018-07-29T08:41:28.178Z,60.40
2018-07-29T08:43:56.316Z,59.70
2018-07-29T08:46:24.696Z,58.80
2018-07-29T08:48:52.786Z,58.30
2018-07-29T08:51:20.923Z,58.10
2018-07-29T08:53:49.034Z,57.80
2018-07-29T08:56:17.282Z,56.70
2018-07-29T08:58:45.745Z,55.60
2018-07-29T09:01:13.862Z,54.40
2018-07-29T09:03:42.026Z,54.20
2018-07-29T09:06:10.155Z,54.60
2018-07-29T09:08:38.310Z,54.50
2018-07-29T09:13:34.343Z,52.90
2018-07-29T09:16:02.632Z,52.30
2018-07-29T09:18:31.084Z,52.30
2018-07-29T09:20:59.892Z,51.80
2018-07-29T09:23:28.048Z,51.30
2018-07-29T09:25:56.142Z,50.50
2018-07-29T09:28:24.228Z,49.60
2018-07-29T09:30:52.560Z,50.10
2018-07-29T09:33:21.562Z,49.20
2018-07-29T09:35:49.846Z,48.90
2018-07-29T09:38:17.969Z,49.10
2018-07-29T09:40:46.003Z,49.10
2018-07-29T09:43:14.077Z,48.90
2018-07-29T09:45:42.341Z,48.60
2018-07-29T09:48:10.514Z,48.90
2018-07-29T09:50:38.754Z,47.20
2018-07-29T09:53:06.875Z,46.80
2018-07-29T09:55:34.948Z,46.40
2018-07-29T09:58:03.273Z,45.80
2018-07-29T10:00:37.098Z,46.00
2018-07-29T10:03:05.197Z,45.70
2018-07-29T10:05:33.670Z,45.30
2018-07-29T10:08:02.721Z,45.30
2018-07-29T10:10:30.919Z,45.30
2018-07-29T10:12:59.046Z,44.70
2018-07-29T10:15:27.158Z,44.50
2018-07-29T10:17:55.238Z,44.10
2018-07-29T10:20:23.314Z,43.60
2018-07-29T10:22:53.840Z,43.20
2018-07-29T10:25:22.991Z,43.60
2018-07-29T10:27:51.054Z,43.80
2018-07-29T10:30:19.189Z,44.00
2018-07-29T10:32:47.336Z,43.20
2018-07-29T10:35:15.794Z,42.50
2018-07-29T10:37:44.227Z,42.70
2018-07-29T10:40:12.746Z,42.00
2018-07-29T10:42:40.817Z,42.10
2018-07-29T10:45:08.951Z,42.00
2018-07-29T10:47:37.718Z,42.10
2018-07-29T10:50:06.591Z,42.30
2018-07-29T10:52:34.679Z,42.60
2018-07-29T10:55:02.790Z,42.90
2018-07-29T10:57:30.906Z,42.80
2018-07-29T10:59:59.138Z,42.70
2018-07-29T11:02:27.330Z,43.00
2018-07-29T11:04:55.416Z,42.80
2018-07-29T11:07:23.773Z,42.90
2018-07-29T11:09:51.855Z,42.80
2018-07-29T11:12:20.110Z,42.80
2018-07-29T11:14:48.179Z,43.20
2018-07-29T11:17:16.342Z,42.70
2018-07-29T11:19:45.757Z,42.10
2018-07-29T11:22:13.882Z,42.00
2018-07-29T11:24:42.134Z,41.40
2018-07-29T11:29:38.394Z,40.80
2018-07-29T11:32:06.661Z,40.60
2018-07-29T11:34:34.802Z,40.30
2018-07-29T11:37:02.876Z,40.20
2018-07-29T11:39:30.981Z,40.20
2018-07-29T11:44:26.987Z,40.10
2018-07-29T11:46:55.342Z,40.10
2018-07-29T11:49:23.483Z,40.20
2018-07-29T11:51:52.344Z,39.90
2018-07-29T11:54:20.788Z,40.30
2018-07-29T11:56:48.991Z,40.90
2018-07-29T11:59:17.053Z,41.00
2018-07-29T12:01:45.219Z,40.80
2018-07-29T12:04:13.311Z,40.70
2018-07-29T12:06:41.966Z,40.70
2018-07-29T12:09:10.762Z,40.60
2018-07-29T12:11:39.147Z,40.30
2018-07-29T12:14:07.477Z,39.70
2018-07-29T12:19:03.660Z,39.60
2018-07-29T12:21:31.746Z,39.20
2018-07-29T12:23:59.880Z,39.40
2018-07-29T12:26:27.938Z,39.30
2018-07-29T12:28:56.059Z,37.50
2018-07-29T12:31:24.442Z,37.30
2018-07-29T12:33:52.523Z,37.00
2018-07-29T12:36:20.956Z,37.40
2018-07-29T12:38:49.113Z,37.20
2018-07-29T12:41:18.050Z,37.30
2018-07-29T12:43:46.218Z,37.50
2018-07-29T12:46:14.306Z,37.30
2018-07-29T12:48:42.818Z,37.70
2018-07-29T12:51:10.950Z,37.90
2018-07-29T12:53:39.130Z,37.20
2018-07-29T12:56:07.210Z,36.90
2018-07-29T12:58:35.382Z,37.00
2018-07-29T13:01:03.719Z,37.00
2018-07-29T13:03:31.816Z,37.10
2018-07-29T13:05:59.968Z,36.80
2018-07-29T13:08:28.585Z,37.60
2018-07-29T13:10:56.707Z,38.20
2018-07-29T13:13:25.091Z,37.80
2018-07-29T13:15:53.154Z,37.10
2018-07-29T13:18:21.259Z,36.70
2018-07-29T13:20:49.418Z,37.10
2018-07-29T13:23:17.518Z,37.20
2018-07-29T13:25:45.785Z,37.30
2018-07-29T13:28:13.845Z,37.00
2018-07-29T13:30:42.826Z,37.30
2018-07-29T13:33:10.897Z,37.60
2018-07-29T13:35:39.138Z,37.60
2018-07-29T13:38:07.638Z,37.80
2018-07-29T13:40:35.714Z,37.80
2018-07-29T13:43:03.846Z,38.60
2018-07-29T13:45:31.911Z,39.20
2018-07-29T13:48:00.014Z,38.80
2018-07-29T13:50:28.106Z,39.00
2018-07-29T13:52:56.753Z,39.70
2018-07-29T13:55:24.860Z,40.40
2018-07-29T13:57:52.930Z,40.40
2018-07-29T14:00:21.453Z,40.80
2018-07-29T14:02:49.615Z,40.60
2018-07-29T14:05:17.687Z,40.20
2018-07-29T14:07:45.813Z,40.30
2018-07-29T14:10:13.998Z,40.20
2018-07-29T14:12:42.064Z,40.20
2018-07-29T14:15:10.122Z,40.90
2018-07-29T14:17:38.490Z,40.80
2018-07-29T14:20:06.782Z,41.00
2018-07-29T14:22:34.868Z,41.00
2018-07-29T14:25:02.934Z,41.40
2018-07-29T14:27:31.143Z,41.80
2018-07-29T14:29:59.571Z,41.10
2018-07-29T14:32:28.086Z,41.00
2018-07-29T14:34:56.091Z,40.10
2018-07-29T14:37:24.143Z,39.70
2018-07-29T14:39:52.234Z,39.30
2018-07-29T14:42:20.344Z,38.70
2018-07-29T14:44:51.386Z,38.10
2018-07-29T14:47:20.665Z,37.70
2018-07-29T14:49:48.763Z,37.40
2018-07-29T14:52:16.828Z,36.30
2018-07-29T14:54:44.906Z,36.50
2018-07-29T14:57:12.972Z,36.80
2018-07-29T14:59:41.071Z,37.10
2018-07-29T15:02:09.142Z,37.00
2018-07-29T15:04:37.252Z,36.80
2018-07-29T15:07:05.572Z,36.50
2018-07-29T15:09:33.748Z,36.50
2018-07-29T15:12:01.810Z,36.50
2018-07-29T15:14:29.908Z,36.40
2018-07-29T15:16:57.978Z,36.50
2018-07-29T15:19:26.063Z,36.40
2018-07-29T15:21:54.212Z,36.50
2018-07-29T15:24:22.334Z,36.50
2018-07-29T15:26:50.455Z,36.50
2018-07-29T15:29:19.717Z,36.70
2018-07-29T15:31:47.770Z,36.30
2018-07-29T15:36:43.947Z,35.50
2018-07-29T15:39:12.012Z,35.40
2018-07-29T15:41:40.103Z,35.20
2018-07-29T15:44:08.169Z,34.50
2018-07-29T15:46:36.314Z,33.90
2018-07-29T15:49:04.405Z,34.20
2018-07-29T15:51:32.489Z,34.40
2018-07-29T15:54:00.633Z,34.40
2018-07-29T15:56:28.656Z,35.00
2018-07-29T15:58:56.770Z,35.20
2018-07-29T16:01:24.838Z,35.50
2018-07-29T16:06:20.890Z,36.00
2018-07-29T16:08:49.358Z,36.30
2018-07-29T16:13:46.196Z,37.00
2018-07-29T16:16:14.314Z,37.50
2018-07-29T16:18:42.418Z,37.80
2018-07-29T16:21:10.474Z,37.90
2018-07-29T16:23:38.576Z,38.20
2018-07-29T16:26:06.662Z,38.40
2018-07-29T16:28:34.743Z,38.60
2018-07-29T16:31:02.807Z,38.60
2018-07-29T16:33:30.902Z,39.50
2018-07-29T16:35:59.017Z,38.30
2018-07-29T16:38:27.080Z,38.40
2018-07-29T16:40:55.178Z,38.40
2018-07-29T16:43:23.878Z,38.70
2018-07-29T16:45:51.955Z,38.70
2018-07-29T16:48:20.069Z,38.90
2018-07-29T16:50:48.130Z,39.00
2018-07-29T16:53:16.558Z,39.30
2018-07-29T16:55:44.642Z,39.30
2018-07-29T16:58:12.718Z,39.50
2018-07-29T17:00:41.054Z,39.60
2018-07-29T17:03:09.151Z,39.70
2018-07-29T17:05:37.319Z,39.90
2018-07-29T17:08:05.603Z,40.00
2018-07-29T17:10:33.686Z,40.40
2018-07-29T17:13:02.061Z,40.40
2018-07-29T17:15:30.120Z,40.50
2018-07-29T17:17:58.179Z,40.60
2018-07-29T17:20:26.291Z,40.60
2018-07-29T17:22:54.522Z,40.60
2018-07-29T17:25:22.710Z,40.80
2018-07-29T17:27:50.784Z,41.30
2018-07-29T17:30:18.872Z,41.40
2018-07-29T17:32:46.943Z,41.30
2018-07-29T17:35:15.024Z,41.20
2018-07-29T17:37:43.402Z,41.40
2018-07-29T17:40:11.466Z,41.40
2018-07-29T17:42:39.639Z,41.80
2018-07-29T17:45:07.724Z,41.70
2018-07-29T17:47:35.915Z,41.70
2018-07-29T17:50:04.586Z,41.90
2018-07-29T17:52:32.662Z,41.90
2018-07-29T17:55:00.829Z,42.00
2018-07-29T17:57:28.921Z,41.90
2018-07-29T17:59:57.016Z,42.00
2018-07-29T18:02:25.164Z,42.00
2018-07-29T18:04:53.218Z,42.00
2018-07-29T18:07:21.312Z,42.20
2018-07-29T18:09:49.463Z,42.30
2018-07-29T18:12:17.654Z,42.40
2018-07-29T18:14:46.118Z,42.70
2018-07-29T18:17:14.415Z,42.80
2018-07-29T18:19:42.511Z,43.60
2018-07-29T18:22:10.584Z,42.90
2018-07-29T18:24:39.014Z,43.20
2018-07-29T18:27:07.691Z,43.70
2018-07-29T18:29:35.906Z,43.70
2018-07-29T18:32:04.065Z,43.70
2018-07-29T18:34:32.212Z,43.80
2018-07-29T18:37:00.339Z,44.00
2018-07-29T18:39:28.745Z,44.30
2018-07-29T18:41:56.926Z,44.40
2018-07-29T18:44:25.092Z,44.60
2018-07-29T18:46:53.191Z,44.80
2018-07-29T18:49:21.680Z,44.90
2018-07-29T18:51:50.434Z,45.50
2018-07-29T18:54:18.658Z,45.70
2018-07-29T18:56:46.952Z,45.90
2018-07-29T18:59:20.787Z,46.00
2018-07-29T19:01:49.827Z,46.20
2018-07-29T19:04:20.784Z,46.30
2018-07-29T19:06:49.387Z,46.60
2018-07-29T19:09:17.503Z,46.80
2018-07-29T19:11:46.096Z,47.10
2018-07-29T19:14:14.096Z,48.10
2018-07-29T19:16:42.629Z,47.60
2018-07-29T19:19:10.770Z,47.80
2018-07-29T19:21:38.877Z,48.10
2018-07-29T19:24:08.268Z,48.80
2018-07-29T19:26:36.789Z,48.90
2018-07-29T19:29:05.158Z,49.50
2018-07-29T19:31:33.216Z,50.30
2018-07-29T19:34:01.338Z,49.60
2018-07-29T19:36:29.398Z,49.80
2018-07-29T19:38:57.538Z,50.00
2018-07-29T19:41:25.823Z,49.50
2018-07-29T19:43:53.917Z,50.30
2018-07-29T19:46:21.986Z,50.40
2018-07-29T19:48:50.179Z,50.60
2018-07-29T19:51:18.354Z,50.80
2018-07-29T19:53:48.029Z,51.10
2018-07-29T19:56:16.163Z,51.40
2018-07-29T19:58:44.266Z,51.60
2018-07-29T20:01:12.456Z,52.10
2018-07-29T20:03:40.672Z,52.30
2018-07-29T20:06:08.848Z,52.90
2018-07-29T20:08:37.076Z,52.90
2018-07-29T20:11:05.406Z,52.80
2018-07-29T20:13:33.490Z,52.90
2018-07-29T20:16:01.587Z,53.00
2018-07-29T20:18:29.954Z,53.20
2018-07-29T20:20:58.082Z,53.40
2018-07-29T20:23:26.201Z,53.60
2018-07-29T20:25:54.277Z,53.80
2018-07-29T20:28:22.486Z,53.90
2018-07-29T20:30:50.963Z,54.10
2018-07-29T20:33:19.125Z,54.20
2018-07-29T20:35:47.202Z,55.10
2018-07-29T20:38:15.291Z,55.10
2018-07-29T20:40:43.399Z,55.10
2018-07-29T20:43:11.486Z,55.20
2018-07-29T20:45:39.655Z,55.50
2018-07-29T20:48:08.007Z,55.70
2018-07-29T20:50:36.160Z,56.50
2018-07-29T20:53:04.284Z,56.00
2018-07-29T20:55:32.744Z,56.00
2018-07-29T20:58:00.883Z,56.20
2018-07-29T21:00:29.010Z,56.30
2018-07-29T21:02:57.115Z,56.30
2018-07-29T21:05:25.204Z,56.40
2018-07-29T21:07:53.653Z,56.50
2018-07-29T21:10:21.782Z,56.60
2018-07-29T21:12:49.854Z,56.70
2018-07-29T21:15:18.078Z,57.30
2018-07-29T21:17:46.385Z,57.20
2018-07-29T21:20:14.726Z,57.10
2018-07-29T21:22:42.814Z,57.20
2018-07-29T21:25:10.918Z,57.20
2018-07-29T21:27:39.507Z,57.10
2018-07-29T21:30:07.849Z,57.20
2018-07-29T21:32:36.363Z,57.30
2018-07-29T21:35:04.529Z,57.40
2018-07-29T21:37:32.811Z,57.60
2018-07-29T21:40:01.043Z,57.60
2018-07-29T21:42:29.120Z,57.80
2018-07-29T21:44:57.187Z,57.90
2018-07-29T21:47:25.266Z,58.30
2018-07-29T21:49:53.522Z,58.30
2018-07-29T21:52:21.620Z,58.80
2018-07-29T21:54:49.680Z,58.60
2018-07-29T21:57:19.660Z,58.60
2018-07-29T22:02:23.860Z,58.80
2018-07-29T22:04:52.938Z,58.80
2018-07-29T22:07:21.058Z,58.90
2018-07-29T22:09:49.522Z,59.10
2018-07-29T22:12:17.620Z,59.10
2018-07-29T22:14:46.024Z,59.20
2018-07-29T22:17:14.112Z,59.40
2018-07-29T22:19:42.178Z,59.50
2018-07-29T22:22:10.337Z,59.70
2018-07-29T22:24:39.974Z,60.30
2018-07-29T22:27:08.118Z,60.30
2018-07-29T22:29:41.711Z,61.00
2018-07-29T22:32:11.022Z,60.90
2018-07-29T22:34:39.312Z,60.90
2018-07-29T22:37:07.946Z,60.90
2018-07-29T22:39:36.016Z,61.00
2018-07-29T22:42:04.121Z,61.00
2018-07-29T22:44:32.326Z,61.20
2018-07-29T22:47:00.424Z,61.40
2018-07-29T22:49:28.537Z,61.50
2018-07-29T22:51:56.639Z,61.60
2018-07-29T22:54:24.714Z,61.70
2018-07-29T22:56:52.783Z,61.90
2018-07-29T22:59:20.928Z,62.20
2018-07-29T23:01:49.029Z,62.40
2018-07-29T23:04:17.083Z,63.60
2018-07-29T23:06:45.154Z,63.00
2018-07-29T23:09:13.307Z,63.10
2018-07-29T23:11:41.408Z,63.00
2018-07-29T23:14:09.485Z,63.10
2018-07-29T23:16:37.670Z,64.00
2018-07-29T23:19:05.746Z,63.30
2018-07-29T23:21:33.994Z,63.50
2018-07-29T23:24:02.059Z,63.70
2018-07-29T23:26:30.555Z,63.80
2018-07-29T23:28:58.628Z,63.90
2018-07-29T23:31:26.690Z,64.00
2018-07-29T23:33:54.784Z,64.30
2018-07-29T23:36:22.944Z,65.00
2018-07-29T23:38:51.040Z,65.00
2018-07-29T23:41:19.170Z,65.50
2018-07-29T23:43:47.239Z,65.40
2018-07-29T23:46:15.322Z,65.40
2018-07-29T23:48:43.398Z,65.40
2018-07-29T23:51:11.502Z,65.40
2018-07-29T23:53:39.574Z,65.60
2018-07-29T23:56:07.642Z,65.70
2018-07-29T23:58:35.784Z,65.90
